Aviation Digital Data Service (ADDS)

Output produced by METARs form (0051 UTC 21 November 2017)
found at http://www.aviationweather.gov/adds/metars/
 
OJAQ 210000Z 00000KT CAVOK 17/07 Q1014 NOSIG
TAF OJAQ 202250Z 2100/2206 36006KT 7000 FEW030 
     TEMPO 2105/2110 20010KT 
     TEMPO 2117/2123 36012KT 4000 -RA FEW030 SCT035
       
OJAM 210000Z 23010KT 7000 SCT030 12/08 Q1014 NOSIG
TAF OJAM 202250Z 2100/2206 25012KT 5000 HZ SCT030 
     TEMPO 2104/2110 26010KT 3000 -SHRA FEW020TCU BKN030 
     TEMPO 2110/2116 27020KT 2000 -TSRA FEW025CB SCT025 BKN030
       
OJAI 210000Z 00000KT 7000 FEW035 08/07 Q1015 NOSIG
TAF OJAI 202250Z 2100/2206 VRB02KT 6000 SCT030 
     TEMPO 2102/2104 3000 BR 
     TEMPO 2104/2110 26012KT 3000 -SHRA FEW020TCU BKN030 
     TEMPO 2110/2118 27025KT 2000 -TSRA FEW025CB SCT025 BKN030
       
OJAM 210000Z 23010KT 7000 SCT030 12/08 Q1014 NOSIG
TAF OJAM 202250Z 2100/2206 25012KT 5000 HZ SCT030 
     TEMPO 2104/2110 26010KT 3000 -SHRA FEW020TCU BKN030 
     TEMPO 2110/2116 27020KT 2000 -TSRA FEW025CB SCT025 BKN030
       
OJAQ 210000Z 00000KT CAVOK 17/07 Q1014 NOSIG
TAF OJAQ 202250Z 2100/2206 36006KT 7000 FEW030 
     TEMPO 2105/2110 20010KT 
     TEMPO 2117/2123 36012KT 4000 -RA FEW030 SCT035
       
OJAI 210000Z 00000KT 7000 FEW035 08/07 Q1015 NOSIG
TAF OJAI 202250Z 2100/2206 VRB02KT 6000 SCT030 
     TEMPO 2102/2104 3000 BR 
     TEMPO 2104/2110 26012KT 3000 -SHRA FEW020TCU BKN030 
     TEMPO 2110/2118 27025KT 2000 -TSRA FEW025CB SCT025 BKN030